Latest Weather Observations for Mount Gambier

IDS60801

Issued at 11:31 am CST Monday 31 August 2015 (issued every 30 minutes, with the page automatically refreshed every 10 minutes)

About weather observations | Map of weather stations | Latest weather observations for SA | Other Formats
Station Details ID: 026021 Name: MOUNT GAMBIER AERO Lat: -37.75 Lon: 140.77 Height: 63.0 m
Data from the previous 72 hours. | See also: Recent months at Mount Gambier
Date/Time
CST
Temp
°C
App
Temp
°C
Dew
Point
Rel
Hum
%
Delta-T
°C
Wind Press
QNH
hPa
Press
MSL
hPa
Rain
since 9 am
mm
Dir
 
Spd
km/h
Gust
km/h
Spd
kts
Gust
kts
31/11:00am 10.1 7.0 3.4 63 2.9 E 9 15 5 8 1022.0 1022.1 0.0
31/10:30am 10.6 7.1 3.5 61 3.1 ENE 11 19 6 10 1022.1 1022.2 0.0
31/10:00am 9.8 6.5 4.6 70 2.3 NE 11 19 6 10 1022.2 1022.3 0.0
31/09:30am 9.2 6.2 4.2 71 2.2 NE 9 11 5 6 1022.5 1022.6 0.0
31/09:00am 8.4 5.3 3.8 73 2.0 N 9 11 5 6 1022.6 1022.7 0.0
31/08:30am 6.7 4.1 6.0 95 0.3 N 9 11 5 6 1022.8 1022.9 0.0
31/08:00am 4.0 2.6 3.3 95 0.3 CALM 0 0 0 0 1022.6 1022.7 0.0
31/07:30am 2.2 0.4 1.4 94 0.3 CALM 0 0 0 0 1022.4 1022.5 0.0
31/07:00am 1.6 -0.6 0.8 94 0.3 NE 2 6 1 3 1022.3 1022.4 0.0
31/06:30am 1.1 -0.8 0.8 98 0.1 CALM 0 0 0 0 1022.2 1022.3 0.0
31/06:00am 1.4 -0.4 0.9 96 0.2 CALM 0 6 0 3 1022.0 1022.1 0.0
31/05:30am 1.2 -1.8 0.7 96 0.2 NW 6 7 3 4 1022.0 1022.1 0.0
31/05:00am 1.5 -0.3 1.0 96 0.2 CALM 0 0 0 0 1022.0 1022.1 0.0
31/04:30am 2.2 0.4 1.4 94 0.3 CALM 0 0 0 0 1021.9 1022.0 0.0
31/04:00am 2.4 0.2 1.1 91 0.5 NW 2 7 1 4 1022.1 1022.2 0.0
31/03:30am 2.5 0.7 1.2 91 0.5 CALM 0 0 0 0 1022.1 1022.2 0.0
31/03:00am 3.4 1.7 2.1 91 0.5 CALM 0 0 0 0 1022.2 1022.3 0.0
31/02:30am 4.7 3.1 2.7 87 0.8 CALM 0 0 0 0 1022.6 1022.7 0.0
31/02:00am 4.8 1.9 2.6 86 0.9 ESE 7 9 4 5 1022.8 1022.9 0.0
31/01:30am 5.3 1.7 2.9 84 1.0 ESE 11 13 6 7 1023.0 1023.1 0.0
31/01:00am 6.2 2.4 3.8 85 1.0 ESE 13 17 7 9 1023.1 1023.2 0.0
31/12:30am 6.8 4.0 5.2 89 0.7 ESE 9 13 5 7 1023.4 1023.5 0.0
31/12:00am 7.0 5.6 5.7 91 0.6 SSW 2 6 1 3 1023.7 1023.8 0.0
 
Date/Time
CST
Temp
°C
App
Temp
°C
Dew
Point
Rel
Hum
%
Delta-T
°C
Wind Press
QNH
hPa
Press
MSL
hPa
Rain
since 9 am
mm
Dir
 
Spd
km/h
Gust
km/h
Spd
kts
Gust
kts
30/11:30pm 7.1 4.8 5.8 91 0.6 NE 7 9 4 5 1023.9 1024.1 0.0
30/11:00pm 7.0 5.6 5.7 91 0.6 NE 2 6 1 3 1024.3 1024.5 0.0
30/10:30pm 6.9 5.9 5.5 91 0.6 CALM 0 0 0 0 1024.6 1024.8 0.0
30/10:00pm 6.7 4.4 5.6 93 0.5 ESE 7 7 4 4 1024.7 1024.9 0.0
30/09:30pm 6.8 4.1 5.4 91 0.6 ESE 9 11 5 6 1024.9 1025.1 0.0
30/09:00pm 6.4 4.2 5.3 93 0.5 SE 6 11 3 6 1024.8 1025.0 0.0
30/08:30pm 6.2 5.0 4.8 91 0.6 CALM 0 0 0 0 1024.8 1025.0 0.0
30/08:00pm 6.1 3.7 4.5 89 0.7 SSW 6 7 3 4 1024.9 1025.1 0.0
30/07:30pm 6.2 3.7 4.6 89 0.7 SSE 7 9 4 5 1024.6 1024.8 0.0
30/07:00pm 6.8 4.0 5.0 88 0.8 SSE 9 11 5 6 1024.5 1024.7 0.0
30/06:30pm 7.5 4.8 5.5 87 0.9 SSE 9 11 5 6 1024.4 1024.6 0.0
30/06:00pm 7.8 4.8 5.8 87 0.9 SSE 11 13 6 7 1024.2 1024.4 0.0
30/05:30pm 9.2 5.1 6.4 83 1.3 SSE 17 19 9 10 1024.0 1024.2 0.0
30/05:00pm 9.6 6.3 6.6 81 1.4 SE 13 17 7 9 1024.0 1024.2 0.0
30/04:30pm 10.8 7.1 6.5 75 2.0 SE 15 19 8 10 1024.2 1024.4 0.0
30/04:00pm 11.4 8.1 6.3 71 2.4 SSE 13 15 7 8 1024.3 1024.5 0.0
30/03:30pm 11.8 8.5 6.3 69 2.6 S 13 17 7 9 1024.4 1024.6 0.0
30/03:00pm 11.4 7.7 6.5 72 2.3 S 15 17 8 9 1024.6 1024.8 0.0
30/02:30pm 11.8 9.1 5.5 65 2.9 SE 9 15 5 8 1024.6 1024.8 0.0
30/02:00pm 11.8 8.4 6.0 67 2.7 S 13 17 7 9 1024.6 1024.8 0.0
30/01:30pm 12.0 8.5 7.0 71 2.4 SSE 15 19 8 10 1024.9 1025.1 0.0
30/01:00pm 11.7 7.9 5.7 66 2.8 SSE 15 19 8 10 1025.3 1025.5 0.0
30/12:30pm 12.1 7.7 6.4 68 2.7 SE 19 24 10 13 1025.6 1025.8 0.0
30/12:00pm 12.0 8.2 6.0 66 2.8 SE 15 22 8 12 1026.0 1026.1 0.0
30/11:30am 11.4 8.2 6.8 73 2.2 ESE 13 19 7 10 1026.4 1026.5 0.0
30/11:00am 10.9 6.7 5.9 71 2.3 ESE 17 19 9 10 1026.8 1026.9 0.0
30/10:30am 10.6 7.1 7.2 79 1.6 ESE 15 19 8 10 1027.2 1027.3 0.0
30/10:00am 10.3 7.7 7.8 84 1.2 ENE 11 17 6 9 1027.4 1027.5 0.0
30/09:30am 9.6 7.1 8.1 90 0.7 ESE 11 15 6 8 1027.5 1027.6 0.0
30/09:04am 8.7 7.0 8.3 97 0.2 ESE 7 9 4 5 1027.6 1027.7 0.0
30/09:00am 8.6 6.5 8.2 97 0.2 ESE 9 13 5 7 1027.6 1027.7 1.0
30/08:30am 8.3 6.5 7.9 97 0.2 SSE 7 11 4 6 1027.8 1027.9 0.8
30/08:00am 7.9 5.6 7.5 97 0.2 SE 9 11 5 6 1027.8 1027.9 0.8
30/07:56am 7.8 5.5 7.4 97 0.2 ESE 9 11 5 6 1027.8 1027.9 0.8
30/07:37am 7.4 5.6 7.2 99 0.1 S 6 7 3 4 1027.8 1027.9 0.8
30/07:30am 7.3 5.4 6.9 97 0.2 S 6 7 3 4 1027.7 1027.8 0.6
30/07:00am 6.5 4.9 6.3 99 0.1 SSW 4 7 2 4 1027.5 1027.6 0.6
30/06:54am 6.4 5.1 6.2 99 0.1 SSW 2 6 1 3 1027.4 1027.5 0.4
30/06:31am 6.2 4.5 6.0 99 0.1 WSW 4 6 2 3 1027.1 1027.2 0.2
30/06:30am 6.2 4.5 6.0 99 0.1 WSW 4 6 2 3 1027.1 1027.2 0.2
30/06:18am 6.1 3.8 5.6 97 0.2 W 7 7 4 4 1027.0 1027.1 0.2
30/06:10am 6.1 4.4 5.9 99 0.1 W 4 7 2 4 1027.0 1027.1 0.2
30/06:00am 6.1 5.2 5.9 99 0.1 CALM 0 0 0 0 1027.0 1027.1 0.2
30/05:30am 5.9 3.7 5.4 97 0.2 WSW 6 7 3 4 1026.8 1026.9 0.2
30/05:26am 6.0 3.9 5.8 99 0.1 WSW 6 7 3 4 1026.8 1026.9 0.2
30/05:11am 5.9 3.6 5.7 99 0.1 WSW 7 9 4 5 1026.9 1027.0 0.2
30/05:00am 6.1 3.8 5.6 97 0.2 W 7 9 4 5 1026.8 1026.9 0.2
30/04:56am 6.0 3.3 5.8 99 0.1 WSW 9 9 5 5 1026.8 1026.9 0.2
30/04:30am 6.4 4.3 6.0 97 0.2 W 6 7 3 4 1026.9 1027.0 0.0
30/04:24am 6.3 4.1 6.1 99 0.1 WNW 7 9 4 5 1026.8 1026.9 0.0
30/04:14am 6.0 3.3 5.5 97 0.2 WNW 9 9 5 5 1026.9 1027.0 0.0
30/04:11am 5.7 3.0 5.5 99 0.1 WNW 9 9 5 5 1026.8 1026.9 0.0
30/04:00am 5.4 3.0 5.2 99 0.1 WNW 7 9 4 5 1026.8 1026.9 0.0
30/03:59am 5.4 2.9 4.9 97 0.2 WNW 7 7 4 4 1026.8 1026.9 0.0
30/03:54am 5.1 2.6 4.6 97 0.2 W 7 7 4 4 1026.7 1026.8 0.0
30/03:48am 5.1 2.6 4.9 99 0.1 W 7 7 4 4 1026.8 1026.9 0.0
30/03:30am 5.1 2.6 4.6 97 0.2 WNW 7 9 4 5 1027.0 1027.1 0.0
30/03:00am 5.4 2.9 4.9 97 0.2 WNW 7 7 4 4 1027.3 1027.4 0.0
30/02:30am 4.7 1.7 4.2 97 0.2 WNW 9 9 5 5 1027.5 1027.6 0.0
30/02:00am 5.3 2.4 4.8 97 0.2 W 9 11 5 6 1027.7 1027.8 0.0
30/01:30am 5.4 2.9 4.9 97 0.2 WSW 7 9 4 5 1028.3 1028.4 0.0
30/01:28am 5.4 2.9 4.9 97 0.2 WSW 7 9 4 5 1028.3 1028.4 0.0
30/01:05am 5.3 2.8 4.8 97 0.2 W 7 9 4 5 1028.3 1028.4 0.0
30/01:00am 5.2 2.7 4.7 97 0.2 W 7 9 4 5 1028.4 1028.5 0.0
30/12:52am 5.3 2.4 4.8 97 0.2 W 9 9 5 5 1028.5 1028.6 0.0
30/12:30am 5.1 2.2 4.6 97 0.2 W 9 9 5 5 1028.7 1028.8 0.0
30/12:00am 5.3 2.4 4.8 97 0.2 W 9 13 5 7 1028.7 1028.8 0.0
 
Date/Time
CST
Temp
°C
App
Temp
°C
Dew
Point
Rel
Hum
%
Delta-T
°C
Wind Press
QNH
hPa
Press
MSL
hPa
Rain
since 9 am
mm
Dir
 
Spd
km/h
Gust
km/h
Spd
kts
Gust
kts
29/11:30pm 5.8 3.0 5.3 97 0.2 W 9 9 5 5 1028.7 1028.8 0.0
29/11:00pm 5.5 3.0 5.0 97 0.2 WNW 7 9 4 5 1028.9 1029.0 0.0
29/10:30pm 5.6 3.2 5.1 97 0.2 SW 7 9 4 5 1029.0 1029.1 0.0
29/10:00pm 4.9 2.5 4.2 95 0.3 WNW 6 9 3 5 1029.1 1029.2 0.0
29/09:30pm 5.2 2.8 4.5 95 0.3 WSW 6 7 3 4 1029.2 1029.3 0.0
29/09:00pm 6.1 3.7 5.2 94 0.4 SW 7 7 4 4 1029.2 1029.3 0.0
29/08:30pm 7.1 4.9 6.0 93 0.5 ESE 7 11 4 6 1029.3 1029.4 0.0
29/08:00pm 7.9 4.3 5.2 83 1.2 SE 13 22 7 12 1029.2 1029.3 0.0
29/07:30pm 7.9 5.4 4.7 80 1.4 SSE 7 7 4 4 1029.1 1029.2 0.0
29/07:00pm 7.9 5.5 5.2 83 1.2 SSE 7 9 4 5 1029.0 1029.1 0.0
29/06:30pm 8.2 4.5 4.5 77 1.6 SSE 13 17 7 9 1028.9 1029.0 0.0
29/06:00pm 8.5 4.7 4.1 74 1.9 SSE 13 17 7 9 1028.6 1028.7 0.0
29/05:30pm 8.8 4.6 4.0 72 2.1 SSE 15 19 8 10 1028.5 1028.6 0.0
29/05:00pm 9.3 4.7 3.5 67 2.5 SSE 17 22 9 12 1028.3 1028.4 0.0
29/04:30pm 9.8 4.7 3.0 62 2.9 S 19 26 10 14 1028.3 1028.4 0.0
29/04:00pm 9.9 4.8 3.2 63 2.9 SSE 19 24 10 13 1028.4 1028.5 0.0
29/03:30pm 10.2 4.0 4.3 67 2.6 SSE 26 30 14 16 1028.6 1028.7 0.0
29/03:00pm 10.2 5.1 4.1 66 2.7 S 20 30 11 16 1028.6 1028.7 0.0
29/02:30pm 10.5 5.0 4.2 65 2.8 S 22 33 12 18 1028.6 1028.7 0.0
29/02:00pm 10.9 5.8 4.1 63 3.0 SSE 20 32 11 17 1028.7 1028.8 0.0
29/01:30pm 10.4 4.2 4.1 65 2.8 SSE 26 30 14 16 1028.7 1028.8 0.0
29/01:00pm 11.1 5.4 2.7 56 3.6 SSE 22 33 12 18 1029.1 1029.2 0.0
29/12:30pm 11.3 4.8 2.7 55 3.7 SSE 26 35 14 19 1029.6 1029.7 0.0
29/12:00pm 11.9 4.8 1.5 49 4.4 SSE 28 35 15 19 1029.8 1029.9 0.0
29/11:30am 10.5 4.4 2.5 57 3.4 SSE 24 30 13 16 1030.1 1030.2 0.0
29/11:00am 10.7 4.1 1.9 54 3.7 S 26 33 14 18 1030.1 1030.2 0.0
29/10:30am 11.3 7.2 2.1 53 3.9 SSE 13 24 7 13 1030.1 1030.2 0.0
29/10:00am 10.1 4.9 2.6 59 3.2 SSE 19 24 10 13 1030.2 1030.3 0.0
29/09:30am 9.9 5.9 2.6 60 3.1 SE 13 24 7 13 1030.3 1030.4 0.0
29/09:00am 10.2 6.0 1.8 56 3.5 SE 13 19 7 10 1030.1 1030.2 0.2
29/08:30am 8.1 4.1 2.6 68 2.3 SSE 13 22 7 12 1030.3 1030.4 0.2
29/08:00am 7.1 4.1 1.9 69 2.1 SE 7 9 4 5 1030.2 1030.3 0.2
29/07:30am 6.2 2.7 1.4 71 1.9 SE 9 11 5 6 1029.9 1030.0 0.2
29/07:00am 4.3 1.0 0.0 73 1.6 SE 7 11 4 6 1029.6 1029.7 0.2
29/06:30am 3.3 0.1 -0.5 76 1.4 ESE 6 6 3 3 1029.2 1029.3 0.2
29/06:00am 3.2 -0.2 -0.3 78 1.3 ESE 7 9 4 5 1029.2 1029.3 0.2
29/05:30am 3.2 -1.0 -0.9 74 1.5 SE 11 13 6 7 1029.1 1029.2 0.2
29/05:00am 3.9 -0.3 -1.0 70 1.8 ESE 11 15 6 8 1028.8 1028.9 0.2
29/04:30am 3.6 -0.1 -0.2 76 1.4 SE 9 11 5 6 1028.7 1028.8 0.2
29/04:00am 4.3 0.2 -0.3 72 1.7 SE 11 13 6 7 1028.8 1028.9 0.2
29/03:30am 4.6 0.3 0.7 76 1.5 SE 13 17 7 9 1028.8 1028.9 0.2
29/03:00am 4.6 1.3 0.4 74 1.6 SSE 7 9 4 5 1028.8 1028.9 0.2
29/02:30am 4.0 1.3 0.3 77 1.4 SSE 4 7 2 4 1029.1 1029.2 0.2
29/02:00am 3.3 -0.4 0.1 79 1.2 SE 9 13 5 7 1029.3 1029.4 0.2
29/01:30am 3.3 -0.7 0.4 81 1.1 SSE 11 15 6 8 1029.5 1029.6 0.2
29/01:00am 4.2 -0.2 0.5 77 1.4 SE 13 17 7 9 1029.5 1029.6 0.2
29/12:30am 4.6 0.6 0.7 76 1.5 SE 11 13 6 7 1029.3 1029.4 0.2
29/12:00am 4.5 -0.1 1.4 80 1.2 SE 15 17 8 9 1029.2 1029.3 0.2
 
Date/Time
CST
Temp
°C
App
Temp
°C
Dew
Point
Rel
Hum
%
Delta-T
°C
Wind Press
QNH
hPa
Press
MSL
hPa
Rain
since 9 am
mm
Dir
 
Spd
km/h
Gust
km/h
Spd
kts
Gust
kts
28/11:30pm 4.8 0.6 1.8 81 1.2 SE 13 17 7 9 1029.2 1029.3 0.2
28/11:00pm 5.2 0.7 2.2 81 1.2 SE 15 19 8 10 1029.3 1029.4 0.2
28/10:30pm 5.1 0.7 2.9 86 0.9 SE 15 19 8 10 1029.3 1029.4 0.2
28/10:00pm 5.2 2.1 3.5 89 0.7 SSE 9 11 5 6 1029.4 1029.5 0.2
28/09:30pm 6.2 3.6 4.3 88 0.8 S 7 7 4 4 1029.3 1029.4 0.2
28/09:00pm 7.2 4.3 4.9 85 1.0 SE 9 13 5 7 1029.2 1029.3 0.2
28/08:30pm 7.9 5.5 5.4 84 1.1 SE 7 11 4 6 1029.0 1029.1 0.2
28/08:00pm 7.9 4.9 5.9 87 0.9 SE 11 17 6 9 1028.8 1028.9 0.2
28/07:30pm 8.2 4.4 5.8 85 1.1 SE 15 19 8 10 1028.5 1028.6 0.2
28/07:00pm 8.5 3.7 5.6 82 1.3 SE 20 30 11 16 1028.3 1028.4 0.2
28/06:30pm 8.5 3.9 6.3 86 1.0 SE 20 32 11 17 1028.1 1028.2 0.2
28/06:00pm 8.8 3.9 7.1 89 0.8 SSE 22 32 12 17 1027.5 1027.6 0.2
28/05:30pm 9.3 2.8 6.7 84 1.2 SE 30 41 16 22 1027.1 1027.2 0.2
28/05:00pm 9.7 6.0 7.8 88 0.9 S 17 28 9 15 1026.7 1026.8 0.2
28/04:30pm 10.0 4.6 8.1 88 0.9 S 26 37 14 20 1026.6 1026.7 0.2
28/04:00pm 11.4 7.1 7.7 78 1.8 SSW 20 26 11 14 1026.5 1026.6 0.2
28/03:30pm 13.3 8.9 7.3 67 2.9 S 20 28 11 15 1026.5 1026.6 0.2
28/03:00pm 11.9 8.9 9.1 83 1.4 SSE 15 20 8 11 1026.5 1026.6 0.2
28/02:30pm 12.0 8.6 9.0 82 1.5 SW 17 28 9 15 1026.6 1026.7 0.2
28/02:00pm 13.0 9.7 8.1 72 2.4 WSW 15 24 8 13 1026.8 1026.9 0.2
28/01:30pm 13.2 9.2 8.4 72 2.4 W 19 26 10 14 1027.1 1027.2 0.0
28/01:00pm 12.7 8.2 8.7 76 2.0 W 22 26 12 14 1027.4 1027.5 0.0
28/12:30pm 12.8 9.6 6.7 66 2.9 WSW 13 20 7 11 1027.7 1027.8 0.0
28/12:00pm 13.2 10.6 6.2 62 3.3 SW 9 15 5 8 1028.2 1028.3 0.0

Other Formats:

Comma delimited format used in spreadsheet applications
http://www.bom.gov.au/fwo/IDS60801/IDS60801.94821.axf

JavaScript Object Notation format (JSON) in row-major order
http://www.bom.gov.au/fwo/IDS60801/IDS60801.94821.json